createdAt,value
2022-11-13T00:00:31.471Z,13.80
2022-11-13T00:03:16.991Z,13.80
2022-11-13T00:06:03.445Z,13.80
2022-11-13T00:08:52.882Z,13.80
2022-11-13T00:11:38.365Z,13.80
2022-11-13T00:14:23.529Z,13.80
2022-11-13T00:17:08.852Z,13.80
2022-11-13T00:19:54.209Z,13.80
2022-11-13T00:22:39.690Z,13.80
2022-11-13T00:25:25.044Z,13.80
2022-11-13T00:28:10.380Z,13.80
2022-11-13T00:30:59.668Z,13.90
2022-11-13T00:34:09.128Z,13.90
2022-11-13T00:36:50.532Z,13.90
2022-11-13T00:39:35.842Z,13.80
2022-11-13T00:42:21.441Z,13.90
2022-11-13T00:45:09.059Z,13.90
2022-11-13T00:47:54.380Z,13.90
2022-11-13T00:50:39.777Z,13.90
2022-11-13T00:53:24.988Z,13.90
2022-11-13T00:56:10.389Z,13.90
2022-11-13T00:58:55.948Z,13.90
2022-11-13T01:01:41.466Z,13.90
2022-11-13T01:04:28.821Z,13.90
2022-11-13T01:07:14.447Z,13.90
2022-11-13T01:10:01.091Z,13.90
2022-11-13T01:12:46.551Z,13.90
2022-11-13T01:15:31.989Z,13.90
2022-11-13T01:18:17.324Z,13.90
2022-11-13T01:21:11.656Z,13.90
2022-11-13T01:23:57.188Z,13.90
2022-11-13T01:26:42.649Z,13.90
2022-11-13T01:29:27.948Z,14.00
2022-11-13T01:32:13.415Z,13.90
2022-11-13T01:34:59.108Z,13.90
2022-11-13T01:37:44.720Z,13.90
2022-11-13T01:40:29.981Z,14.00
2022-11-13T01:43:32.159Z,14.00
2022-11-13T01:46:20.594Z,14.00
2022-11-13T01:49:11.521Z,14.00
2022-11-13T01:52:07.131Z,14.00
2022-11-13T01:55:17.534Z,14.00
2022-11-13T01:58:04.205Z,14.00
2022-11-13T02:00:49.553Z,14.00
2022-11-13T02:03:34.845Z,14.00
2022-11-13T02:06:21.777Z,14.00
2022-11-13T02:09:08.171Z,14.00
2022-11-13T02:11:54.318Z,14.00
2022-11-13T02:14:43.697Z,14.00
2022-11-13T02:17:40.087Z,14.00
2022-11-13T02:20:47.232Z,14.00
2022-11-13T02:23:53.939Z,14.00
2022-11-13T02:26:41.267Z,13.90
2022-11-13T02:29:26.675Z,13.90
2022-11-13T02:32:11.880Z,13.90
2022-11-13T02:34:57.228Z,13.80
2022-11-13T02:37:42.829Z,13.80
2022-11-13T02:40:29.288Z,13.70
2022-11-13T02:43:14.706Z,13.70
2022-11-13T02:45:59.889Z,13.70
2022-11-13T02:48:45.306Z,13.70
2022-11-13T02:51:30.590Z,13.70
2022-11-13T02:54:17.246Z,13.70
2022-11-13T02:57:02.708Z,13.70
2022-11-13T02:59:48.009Z,13.60
2022-11-13T03:02:33.396Z,13.60
2022-11-13T03:05:19.204Z,13.50
2022-11-13T03:08:06.725Z,13.50
2022-11-13T03:10:53.557Z,13.50
2022-11-13T03:13:39.327Z,13.40
2022-11-13T03:16:24.726Z,13.30
2022-11-13T03:19:10.232Z,13.30
2022-11-13T03:21:55.482Z,13.30
2022-11-13T03:24:40.885Z,13.30
2022-11-13T03:27:26.543Z,13.30
2022-11-13T03:30:12.240Z,13.30
2022-11-13T03:32:58.198Z,13.30
2022-11-13T03:35:46.979Z,13.40
2022-11-13T03:38:33.499Z,13.40
2022-11-13T03:41:19.195Z,13.40
2022-11-13T03:44:04.738Z,13.50
2022-11-13T03:46:50.129Z,13.50
2022-11-13T03:49:35.421Z,13.50
2022-11-13T03:52:20.946Z,13.50
2022-11-13T03:55:06.496Z,13.50
2022-11-13T03:57:52.107Z,13.50
2022-11-13T04:00:43.461Z,13.50
2022-11-13T04:03:29.037Z,13.50
2022-11-13T04:06:14.919Z,13.50
2022-11-13T04:09:00.348Z,13.50
2022-11-13T04:11:45.696Z,13.50
2022-11-13T04:14:30.975Z,13.60
2022-11-13T04:17:16.530Z,13.60
2022-11-13T04:20:01.919Z,13.60
2022-11-13T04:22:47.452Z,13.60
2022-11-13T04:25:33.394Z,13.60
2022-11-13T04:28:18.551Z,13.60
2022-11-13T04:31:04.195Z,13.60
2022-11-13T04:33:49.792Z,13.60
2022-11-13T04:36:35.216Z,13.50
2022-11-13T04:39:20.621Z,13.50
2022-11-13T04:42:24.650Z,13.50
2022-11-13T04:45:10.619Z,13.50
2022-11-13T04:47:56.459Z,13.50
2022-11-13T04:50:41.986Z,13.50
2022-11-13T04:53:27.383Z,13.40
2022-11-13T04:56:12.697Z,13.40
2022-11-13T04:58:58.117Z,13.40
2022-11-13T05:01:43.497Z,13.40
2022-11-13T05:04:28.700Z,13.40
2022-11-13T05:07:14.250Z,13.40
2022-11-13T05:10:00.000Z,13.40
2022-11-13T05:12:45.172Z,13.40
2022-11-13T05:15:30.554Z,13.30
2022-11-13T05:18:16.020Z,13.30
2022-11-13T05:21:02.054Z,13.30
2022-11-13T05:23:47.313Z,13.30
2022-11-13T05:26:33.014Z,13.30
2022-11-13T05:29:18.716Z,13.20
2022-11-13T05:32:04.158Z,13.20
2022-11-13T05:34:49.662Z,13.20
2022-11-13T05:37:35.294Z,13.20
2022-11-13T05:40:20.888Z,13.20
2022-11-13T05:43:06.228Z,13.20
2022-11-13T05:45:51.832Z,13.10
2022-11-13T05:48:37.537Z,13.10
2022-11-13T05:51:28.559Z,13.10
2022-11-13T05:54:13.835Z,13.10
2022-11-13T05:56:59.310Z,13.10
2022-11-13T05:59:44.523Z,13.10
2022-11-13T06:02:29.832Z,13.10
2022-11-13T06:05:15.216Z,13.10
2022-11-13T06:08:00.587Z,13.20
2022-11-13T06:10:46.403Z,13.20
2022-11-13T06:13:32.376Z,13.20
2022-11-13T06:16:24.476Z,13.20
2022-11-13T06:19:11.051Z,13.20
2022-11-13T06:21:56.750Z,13.20
2022-11-13T06:24:42.019Z,13.20
2022-11-13T06:27:28.026Z,13.20
2022-11-13T06:30:13.858Z,13.20
2022-11-13T06:32:59.301Z,13.20
2022-11-13T06:35:44.625Z,13.20
2022-11-13T06:38:34.274Z,13.20
2022-11-13T06:41:23.090Z,13.20
2022-11-13T06:44:08.465Z,13.20
2022-11-13T06:46:53.794Z,13.20
2022-11-13T06:49:39.110Z,13.20
2022-11-13T06:52:24.573Z,13.20
2022-11-13T06:55:09.893Z,13.20
2022-11-13T06:57:55.241Z,13.20
2022-11-13T07:00:43.381Z,13.20
2022-11-13T07:03:28.934Z,13.30
2022-11-13T07:06:18.411Z,13.30
2022-11-13T07:09:03.954Z,13.30
2022-11-13T07:11:49.232Z,13.30
2022-11-13T07:14:34.674Z,13.30
2022-11-13T07:17:19.943Z,13.30
2022-11-13T07:20:05.760Z,13.30
2022-11-13T07:22:54.653Z,13.30
2022-11-13T07:25:39.892Z,13.30
2022-11-13T07:28:25.347Z,13.30
2022-11-13T07:31:13.290Z,13.30
2022-11-13T07:33:58.785Z,13.40
2022-11-13T07:36:44.283Z,13.40
2022-11-13T07:39:29.641Z,13.40
2022-11-13T07:42:15.126Z,13.50
2022-11-13T07:45:00.925Z,13.50
2022-11-13T07:47:46.572Z,13.50
2022-11-13T07:50:34.214Z,13.50
2022-11-13T07:53:20.886Z,13.50
2022-11-13T07:56:06.787Z,13.50
2022-11-13T07:58:52.191Z,13.60
2022-11-13T08:01:38.408Z,13.60
2022-11-13T08:04:24.125Z,13.60
2022-11-13T08:07:12.633Z,13.60
2022-11-13T08:09:58.556Z,13.60
2022-11-13T08:12:44.730Z,13.60
2022-11-13T08:15:31.708Z,13.70
2022-11-13T08:18:17.190Z,13.70
2022-11-13T08:21:03.979Z,13.70
2022-11-13T08:23:50.316Z,13.70
2022-11-13T08:26:38.766Z,13.70
2022-11-13T08:29:24.475Z,13.70
2022-11-13T08:32:10.212Z,13.80
2022-11-13T08:34:55.506Z,13.80
2022-11-13T08:37:40.889Z,13.80
2022-11-13T08:40:26.033Z,13.80
2022-11-13T08:43:11.545Z,13.80
2022-11-13T08:45:57.179Z,13.80
2022-11-13T08:48:42.886Z,13.80
2022-11-13T08:51:28.898Z,13.90
2022-11-13T08:54:14.169Z,13.90
2022-11-13T08:57:04.715Z,13.90
2022-11-13T08:59:51.301Z,13.90
2022-11-13T09:02:36.836Z,13.90
2022-11-13T09:05:23.020Z,13.90
2022-11-13T09:08:08.381Z,13.90
2022-11-13T09:10:53.688Z,14.00
2022-11-13T09:13:44.042Z,14.00
2022-11-13T09:16:31.453Z,14.00
2022-11-13T09:19:16.898Z,14.10
2022-11-13T09:22:02.198Z,14.10
2022-11-13T09:24:48.170Z,14.10
2022-11-13T09:27:33.458Z,14.10
2022-11-13T09:30:18.874Z,14.20
2022-11-13T09:33:04.719Z,14.20
2022-11-13T09:35:49.892Z,14.20
2022-11-13T09:38:35.164Z,14.30
2022-11-13T09:41:28.193Z,14.30
2022-11-13T09:44:24.418Z,14.30
2022-11-13T09:47:18.079Z,14.30
2022-11-13T09:50:20.467Z,14.40
2022-11-13T09:53:05.961Z,14.40
2022-11-13T09:56:19.161Z,14.40
2022-11-13T09:59:37.524Z,14.40
2022-11-13T10:02:44.536Z,14.40
2022-11-13T10:05:51.770Z,14.40
2022-11-13T10:08:57.027Z,14.50
2022-11-13T10:11:57.750Z,14.50
2022-11-13T10:14:51.324Z,14.50
2022-11-13T10:17:44.088Z,14.60
2022-11-13T10:20:46.081Z,14.60
2022-11-13T10:23:38.774Z,14.60
2022-11-13T10:26:27.858Z,14.60
2022-11-13T10:29:15.637Z,14.70
2022-11-13T10:32:23.341Z,14.70
2022-11-13T10:35:19.537Z,14.70
2022-11-13T10:38:09.391Z,14.80
2022-11-13T10:41:06.906Z,14.80
2022-11-13T10:43:53.979Z,14.80
2022-11-13T10:46:39.371Z,14.80
2022-11-13T10:49:30.261Z,14.90
2022-11-13T10:52:28.130Z,14.90
2022-11-13T10:55:22.104Z,14.90
2022-11-13T10:58:16.633Z,15.00
2022-11-13T11:01:02.343Z,15.00
2022-11-13T11:03:51.477Z,15.00
2022-11-13T11:07:17.930Z,15.00
2022-11-13T11:09:49.033Z,15.10
2022-11-13T11:12:34.356Z,15.00
2022-11-13T11:15:38.772Z,15.10
2022-11-13T11:18:39.025Z,15.10
2022-11-13T11:21:37.305Z,15.10
2022-11-13T11:24:33.564Z,15.20
2022-11-13T11:27:25.971Z,15.20
2022-11-13T11:30:20.569Z,15.20
2022-11-13T11:33:30.678Z,15.20
2022-11-13T11:36:33.433Z,15.20
2022-11-13T11:39:41.683Z,15.20
2022-11-13T11:42:38.827Z,15.30
2022-11-13T11:45:30.107Z,15.30
2022-11-13T11:48:31.247Z,15.30
2022-11-13T11:51:25.992Z,15.30
2022-11-13T11:54:38.005Z,15.40
2022-11-13T11:58:03.539Z,15.40
2022-11-13T12:01:01.059Z,15.40
2022-11-13T12:04:05.079Z,15.40
2022-11-13T12:07:18.070Z,15.40
2022-11-13T12:10:26.696Z,15.40
2022-11-13T12:13:23.582Z,15.40
2022-11-13T12:16:35.803Z,15.50
2022-11-13T12:19:54.879Z,15.50
2022-11-13T12:22:51.571Z,15.50
2022-11-13T12:25:45.849Z,15.60
2022-11-13T12:28:50.320Z,15.60
2022-11-13T12:31:53.608Z,15.60
2022-11-13T12:34:47.313Z,15.60
2022-11-13T12:37:45.404Z,15.70
2022-11-13T12:40:44.684Z,15.70
2022-11-13T12:43:33.275Z,15.70
2022-11-13T12:46:19.314Z,15.80
2022-11-13T12:49:24.955Z,15.90
2022-11-13T12:52:16.369Z,16.00
2022-11-13T12:55:24.670Z,16.00
2022-11-13T12:58:19.557Z,16.10
2022-11-13T13:01:10.809Z,16.10
2022-11-13T13:04:29.423Z,16.20
2022-11-13T13:07:33.174Z,16.20
2022-11-13T13:10:30.397Z,16.20
2022-11-13T13:13:35.640Z,16.30
2022-11-13T13:16:28.014Z,16.30
2022-11-13T13:19:33.201Z,16.40
2022-11-13T13:22:28.576Z,16.40
2022-11-13T13:25:25.589Z,16.50
2022-11-13T13:28:13.852Z,16.60
2022-11-13T13:31:19.001Z,16.80
2022-11-13T13:34:13.661Z,16.90
2022-11-13T13:37:51.031Z,17.00
2022-11-13T13:40:58.596Z,17.20
2022-11-13T13:44:02.919Z,17.20
2022-11-13T13:46:49.115Z,17.30
2022-11-13T13:49:34.312Z,17.40
2022-11-13T13:52:33.132Z,17.40
2022-11-13T13:55:38.789Z,17.40
2022-11-13T13:58:29.040Z,17.40
2022-11-13T14:01:26.758Z,17.50
2022-11-13T14:04:19.954Z,17.40
2022-11-13T14:07:18.289Z,17.40
2022-11-13T14:10:20.731Z,17.50
2022-11-13T14:13:11.661Z,17.50
2022-11-13T14:16:05.145Z,17.60
2022-11-13T14:18:50.435Z,17.60
2022-11-13T14:21:36.236Z,17.60
2022-11-13T14:24:26.174Z,17.70
2022-11-13T14:27:17.896Z,17.80
2022-11-13T14:30:04.232Z,17.80
2022-11-13T14:32:50.549Z,17.80
2022-11-13T14:35:38.712Z,17.70
2022-11-13T14:38:28.514Z,17.50
2022-11-13T14:41:47.453Z,17.80
2022-11-13T14:44:34.965Z,18.10
2022-11-13T14:47:30.111Z,18.10
2022-11-13T14:50:36.004Z,18.00
2022-11-13T14:53:33.249Z,17.70
2022-11-13T14:56:18.500Z,17.50
2022-11-13T14:59:08.117Z,17.40
2022-11-13T15:01:59.612Z,17.30
2022-11-13T15:04:45.195Z,17.10
2022-11-13T15:07:34.082Z,17.00
2022-11-13T15:10:21.890Z,16.90
2022-11-13T15:13:16.480Z,16.80
2022-11-13T15:16:02.051Z,16.70
2022-11-13T15:18:51.928Z,16.70
2022-11-13T15:21:37.496Z,16.60
2022-11-13T15:24:23.488Z,16.60
2022-11-13T15:27:18.558Z,16.50
2022-11-13T15:30:04.468Z,16.40
2022-11-13T15:32:53.863Z,16.40
2022-11-13T15:35:41.615Z,16.40
2022-11-13T15:38:26.952Z,16.30
2022-11-13T15:41:15.155Z,16.30
2022-11-13T15:44:02.222Z,16.30
2022-11-13T15:46:47.960Z,16.20
2022-11-13T15:49:33.438Z,16.30
2022-11-13T15:52:20.148Z,16.20
2022-11-13T15:55:14.851Z,16.10
2022-11-13T15:58:02.741Z,16.10
2022-11-13T16:00:48.401Z,16.00
2022-11-13T16:03:39.496Z,16.00
2022-11-13T16:06:25.647Z,16.00
2022-11-13T16:09:14.245Z,15.90
2022-11-13T16:12:01.520Z,15.90
2022-11-13T16:14:46.862Z,15.90
2022-11-13T16:17:38.721Z,15.80
2022-11-13T16:20:24.554Z,15.80
2022-11-13T16:23:17.109Z,15.80
2022-11-13T16:26:04.582Z,15.70
2022-11-13T16:29:12.677Z,15.70
2022-11-13T16:31:58.063Z,15.70
2022-11-13T16:34:44.387Z,15.60
2022-11-13T16:37:29.588Z,15.60
2022-11-13T16:40:24.475Z,15.60
2022-11-13T16:43:10.484Z,15.60
2022-11-13T16:46:00.278Z,15.60
2022-11-13T16:48:48.939Z,15.60
2022-11-13T16:51:34.221Z,15.50
2022-11-13T16:54:20.070Z,15.50
2022-11-13T16:57:05.622Z,15.50
2022-11-13T16:59:50.829Z,15.50
2022-11-13T17:02:36.445Z,15.40
2022-11-13T17:05:23.317Z,15.40
2022-11-13T17:08:12.620Z,15.40
2022-11-13T17:10:58.667Z,15.40
2022-11-13T17:13:54.662Z,15.40
2022-11-13T17:16:40.018Z,15.40
2022-11-13T17:19:25.694Z,15.40
2022-11-13T17:22:12.205Z,15.40
2022-11-13T17:24:57.861Z,15.40
2022-11-13T17:27:44.028Z,15.30
2022-11-13T17:30:29.610Z,15.30
2022-11-13T17:33:16.699Z,15.30
2022-11-13T17:36:02.575Z,15.30
2022-11-13T17:38:48.296Z,15.30
2022-11-13T17:41:35.009Z,15.30
2022-11-13T17:44:20.429Z,15.30
2022-11-13T17:47:06.145Z,15.30
2022-11-13T17:49:51.477Z,15.30
2022-11-13T17:52:37.126Z,15.40
2022-11-13T17:55:22.440Z,15.40
2022-11-13T17:58:07.708Z,15.40
2022-11-13T18:00:54.083Z,15.40
2022-11-13T18:03:39.909Z,15.40
2022-11-13T18:06:25.567Z,15.40
2022-11-13T18:09:11.371Z,15.40
2022-11-13T18:11:56.729Z,15.40
2022-11-13T18:14:42.269Z,15.40
2022-11-13T18:17:27.973Z,15.40
2022-11-13T18:20:13.369Z,15.40
2022-11-13T18:22:59.034Z,15.40
2022-11-13T18:25:44.381Z,15.40
2022-11-13T18:28:29.850Z,15.40
2022-11-13T18:31:17.780Z,15.40
2022-11-13T18:34:05.179Z,15.40
2022-11-13T18:36:51.067Z,15.40
2022-11-13T18:39:36.798Z,15.40
2022-11-13T18:42:22.141Z,15.40
2022-11-13T18:45:08.305Z,15.30
2022-11-13T18:47:53.600Z,15.30
2022-11-13T18:50:39.180Z,15.30
2022-11-13T18:53:24.625Z,15.30
2022-11-13T18:56:20.111Z,15.30
2022-11-13T18:59:06.266Z,15.30
2022-11-13T19:01:52.076Z,15.30
2022-11-13T19:04:37.785Z,15.30
2022-11-13T19:07:23.423Z,15.30
2022-11-13T19:10:08.990Z,15.20
2022-11-13T19:12:54.200Z,15.30
2022-11-13T19:15:39.843Z,15.30
2022-11-13T19:18:25.736Z,15.20
2022-11-13T19:21:14.059Z,15.20
2022-11-13T19:24:01.168Z,15.20
2022-11-13T19:26:46.513Z,15.30
2022-11-13T19:29:50.487Z,15.20
2022-11-13T19:32:35.858Z,15.20
2022-11-13T19:35:21.316Z,15.20
2022-11-13T19:38:06.838Z,15.20
2022-11-13T19:40:53.058Z,15.20
2022-11-13T19:43:41.110Z,15.20
2022-11-13T19:46:27.344Z,15.20
2022-11-13T19:49:12.821Z,15.20
2022-11-13T19:51:58.331Z,15.20
2022-11-13T19:54:45.089Z,15.20
2022-11-13T19:57:30.467Z,15.20
2022-11-13T20:00:17.264Z,15.20
2022-11-13T20:03:07.433Z,15.10
2022-11-13T20:05:56.117Z,15.10
2022-11-13T20:08:42.073Z,15.10
2022-11-13T20:11:28.114Z,15.10
2022-11-13T20:14:13.950Z,15.10
2022-11-13T20:17:00.460Z,15.20
2022-11-13T20:19:46.068Z,15.20
2022-11-13T20:22:31.492Z,15.10
2022-11-13T20:25:17.095Z,15.10
2022-11-13T20:28:03.243Z,15.10
2022-11-13T20:30:49.166Z,15.10
2022-11-13T20:33:36.016Z,15.10
2022-11-13T20:36:23.033Z,15.10
2022-11-13T20:39:09.676Z,15.10
2022-11-13T20:41:55.450Z,15.10
2022-11-13T20:44:41.017Z,15.10
2022-11-13T20:47:26.606Z,15.10
2022-11-13T20:50:12.426Z,15.10
2022-11-13T20:52:59.017Z,15.10
2022-11-13T20:55:45.636Z,15.10
2022-11-13T20:58:32.698Z,15.10
2022-11-13T21:01:25.534Z,15.00
2022-11-13T21:04:11.238Z,15.00
2022-11-13T21:06:57.126Z,15.00
2022-11-13T21:09:48.795Z,15.00
2022-11-13T21:12:36.222Z,15.00
2022-11-13T21:15:21.677Z,15.00
2022-11-13T21:18:07.046Z,14.90
2022-11-13T21:20:52.534Z,15.00
2022-11-13T21:23:37.978Z,15.00
2022-11-13T21:26:23.396Z,15.00
2022-11-13T21:29:08.640Z,15.00
2022-11-13T21:31:54.047Z,14.90
2022-11-13T21:34:39.687Z,14.90
2022-11-13T21:37:26.359Z,14.90
2022-11-13T21:40:12.733Z,14.90
2022-11-13T21:42:58.089Z,14.90
2022-11-13T21:45:43.368Z,14.90
2022-11-13T21:48:33.019Z,14.90
2022-11-13T21:51:18.912Z,14.80
2022-11-13T21:54:04.830Z,14.80
2022-11-13T21:56:50.356Z,14.80
2022-11-13T21:59:35.770Z,14.80
2022-11-13T22:02:21.382Z,14.80
2022-11-13T22:05:07.633Z,14.80
2022-11-13T22:07:53.058Z,14.70
2022-11-13T22:10:38.725Z,14.70
2022-11-13T22:13:24.076Z,14.70
2022-11-13T22:16:12.001Z,14.70
2022-11-13T22:18:59.952Z,14.70
2022-11-13T22:21:46.595Z,14.70
2022-11-13T22:24:32.203Z,14.70
2022-11-13T22:27:18.474Z,14.60
2022-11-13T22:30:04.172Z,14.60
2022-11-13T22:32:49.826Z,14.60
2022-11-13T22:35:35.294Z,14.60
2022-11-13T22:38:20.557Z,14.60
2022-11-13T22:41:24.343Z,14.50
2022-11-13T22:44:13.249Z,14.50
2022-11-13T22:46:58.580Z,14.60
2022-11-13T22:49:44.933Z,14.50
2022-11-13T22:52:30.433Z,14.50
2022-11-13T22:55:15.965Z,14.50
2022-11-13T22:58:01.315Z,14.50
2022-11-13T23:00:46.544Z,14.50
2022-11-13T23:03:32.286Z,14.50
2022-11-13T23:06:20.504Z,14.50
2022-11-13T23:09:06.360Z,14.50
2022-11-13T23:11:51.922Z,14.50
2022-11-13T23:14:37.089Z,14.50
2022-11-13T23:17:22.510Z,14.50
2022-11-13T23:20:08.763Z,14.40
2022-11-13T23:22:54.002Z,14.40
2022-11-13T23:25:40.005Z,14.40
2022-11-13T23:28:25.345Z,14.40
2022-11-13T23:31:11.115Z,14.40
2022-11-13T23:33:56.738Z,14.40
2022-11-13T23:36:42.212Z,14.40
2022-11-13T23:39:27.458Z,14.40
2022-11-13T23:42:12.831Z,14.40
2022-11-13T23:44:58.303Z,14.40
2022-11-13T23:47:44.153Z,14.40
2022-11-13T23:50:30.036Z,14.40
2022-11-13T23:53:15.679Z,14.40
2022-11-13T23:56:01.421Z,14.40
2022-11-13T23:58:47.178Z,14.40
